sensor_id;sensor_type;location;lat;lon;timestamp;temperature;humidity
7972;DHT22;4031;49.758;6.120;2023-10-13T00:02:07;14.30;99.90
7972;DHT22;4031;49.758;6.120;2023-10-13T00:04:33;14.40;99.90
7972;DHT22;4031;49.758;6.120;2023-10-13T00:07:03;14.50;99.90
7972;DHT22;4031;49.758;6.120;2023-10-13T00:09:30;14.50;99.90
7972;DHT22;4031;49.758;6.120;2023-10-13T00:12:06;14.60;99.90
7972;DHT22;4031;49.758;6.120;2023-10-13T00:14:35;14.70;99.90
7972;DHT22;4031;49.758;6.120;2023-10-13T00:17:02;14.70;99.90
7972;DHT22;4031;49.758;6.120;2023-10-13T00:19:41;14.80;99.90
7972;DHT22;4031;49.758;6.120;2023-10-13T00:22:17;14.80;99.90
7972;DHT22;4031;49.758;6.120;2023-10-13T00:24:45;14.80;99.90
7972;DHT22;4031;49.758;6.120;2023-10-13T00:27:16;14.80;99.90
7972;DHT22;4031;49.758;6.120;2023-10-13T00:29:59;14.80;99.90
7972;DHT22;4031;49.758;6.120;2023-10-13T00:32:48;14.80;99.90
7972;DHT22;4031;49.758;6.120;2023-10-13T00:35:21;14.80;99.90
7972;DHT22;4031;49.758;6.120;2023-10-13T00:37:51;14.80;99.90
7972;DHT22;4031;49.758;6.120;2023-10-13T00:40:20;14.90;99.90
7972;DHT22;4031;49.758;6.120;2023-10-13T00:42:59;14.90;99.90
7972;DHT22;4031;49.758;6.120;2023-10-13T00:45:48;14.90;99.90
7972;DHT22;4031;49.758;6.120;2023-10-13T00:48:29;14.80;99.90
7972;DHT22;4031;49.758;6.120;2023-10-13T00:51:04;14.80;99.90
7972;DHT22;4031;49.758;6.120;2023-10-13T00:53:39;14.90;99.90
7972;DHT22;4031;49.758;6.120;2023-10-13T00:56:06;14.90;99.90
7972;DHT22;4031;49.758;6.120;2023-10-13T00:58:36;14.90;99.90
7972;DHT22;4031;49.758;6.120;2023-10-13T01:01:06;14.90;99.90
7972;DHT22;4031;49.758;6.120;2023-10-13T01:03:52;15.00;99.90
7972;DHT22;4031;49.758;6.120;2023-10-13T01:06:22;15.00;99.90
7972;DHT22;4031;49.758;6.120;2023-10-13T01:09:04;15.10;99.90
7972;DHT22;4031;49.758;6.120;2023-10-13T01:11:48;15.20;99.90
7972;DHT22;4031;49.758;6.120;2023-10-13T01:14:18;15.30;99.90
7972;DHT22;4031;49.758;6.120;2023-10-13T01:16:46;15.40;99.90
7972;DHT22;4031;49.758;6.120;2023-10-13T01:19:19;15.50;99.90
7972;DHT22;4031;49.758;6.120;2023-10-13T01:21:52;15.50;99.90
7972;DHT22;4031;49.758;6.120;2023-10-13T01:24:29;15.60;99.90
7972;DHT22;4031;49.758;6.120;2023-10-13T01:27:03;15.70;99.90
7972;DHT22;4031;49.758;6.120;2023-10-13T01:29:49;15.90;99.90
7972;DHT22;4031;49.758;6.120;2023-10-13T01:32:24;15.90;99.90
7972;DHT22;4031;49.758;6.120;2023-10-13T01:34:51;16.00;99.90
7972;DHT22;4031;49.758;6.120;2023-10-13T01:37:21;16.00;99.90
7972;DHT22;4031;49.758;6.120;2023-10-13T01:39:47;16.10;99.90
7972;DHT22;4031;49.758;6.120;2023-10-13T01:42:15;16.10;99.90
7972;DHT22;4031;49.758;6.120;2023-10-13T01:44:47;16.20;99.90
7972;DHT22;4031;49.758;6.120;2023-10-13T01:47:13;16.20;99.90
7972;DHT22;4031;49.758;6.120;2023-10-13T01:49:41;16.20;99.90
7972;DHT22;4031;49.758;6.120;2023-10-13T01:52:16;16.20;99.90
7972;DHT22;4031;49.758;6.120;2023-10-13T01:54:42;16.20;99.90
7972;DHT22;4031;49.758;6.120;2023-10-13T01:57:10;16.30;99.90
7972;DHT22;4031;49.758;6.120;2023-10-13T01:59:46;16.30;99.90
7972;DHT22;4031;49.758;6.120;2023-10-13T02:02:14;16.30;99.90
7972;DHT22;4031;49.758;6.120;2023-10-13T02:04:40;16.30;99.90
7972;DHT22;4031;49.758;6.120;2023-10-13T02:07:17;16.40;99.90
7972;DHT22;4031;49.758;6.120;2023-10-13T02:09:43;16.40;99.90
7972;DHT22;4031;49.758;6.120;2023-10-13T02:12:09;16.40;99.90
7972;DHT22;4031;49.758;6.120;2023-10-13T02:14:36;16.50;99.90
7972;DHT22;4031;49.758;6.120;2023-10-13T02:17:04;16.40;99.90
7972;DHT22;4031;49.758;6.120;2023-10-13T02:19:40;16.40;99.90
7972;DHT22;4031;49.758;6.120;2023-10-13T02:22:11;16.40;99.90
7972;DHT22;4031;49.758;6.120;2023-10-13T02:24:37;16.40;99.90
7972;DHT22;4031;49.758;6.120;2023-10-13T02:27:09;16.40;99.90
7972;DHT22;4031;49.758;6.120;2023-10-13T02:29:42;16.40;99.90
7972;DHT22;4031;49.758;6.120;2023-10-13T02:32:11;16.40;99.90
7972;DHT22;4031;49.758;6.120;2023-10-13T02:34:46;16.30;99.90
7972;DHT22;4031;49.758;6.120;2023-10-13T02:37:12;16.30;99.90
7972;DHT22;4031;49.758;6.120;2023-10-13T02:39:39;16.30;99.90
7972;DHT22;4031;49.758;6.120;2023-10-13T02:42:08;16.30;99.90
7972;DHT22;4031;49.758;6.120;2023-10-13T02:44:50;16.20;99.90
7972;DHT22;4031;49.758;6.120;2023-10-13T02:47:16;16.20;99.90
7972;DHT22;4031;49.758;6.120;2023-10-13T02:49:44;16.20;99.90
7972;DHT22;4031;49.758;6.120;2023-10-13T02:52:13;16.20;99.90
7972;DHT22;4031;49.758;6.120;2023-10-13T02:54:40;16.20;99.90
7972;DHT22;4031;49.758;6.120;2023-10-13T02:57:12;16.20;99.90
7972;DHT22;4031;49.758;6.120;2023-10-13T02:59:41;16.30;99.90
7972;DHT22;4031;49.758;6.120;2023-10-13T03:02:12;16.30;99.90
7972;DHT22;4031;49.758;6.120;2023-10-13T03:04:55;16.30;99.90
7972;DHT22;4031;49.758;6.120;2023-10-13T03:07:28;16.20;99.90
7972;DHT22;4031;49.758;6.120;2023-10-13T03:09:55;16.20;99.90
7972;DHT22;4031;49.758;6.120;2023-10-13T03:12:36;16.20;99.90
7972;DHT22;4031;49.758;6.120;2023-10-13T03:15:03;16.20;99.90
7972;DHT22;4031;49.758;6.120;2023-10-13T03:17:38;16.20;99.90
7972;DHT22;4031;49.758;6.120;2023-10-13T03:20:10;16.20;99.90
7972;DHT22;4031;49.758;6.120;2023-10-13T03:22:40;16.20;99.90
7972;DHT22;4031;49.758;6.120;2023-10-13T03:25:06;16.20;99.90
7972;DHT22;4031;49.758;6.120;2023-10-13T03:27:34;16.20;99.90
7972;DHT22;4031;49.758;6.120;2023-10-13T03:30:26;16.20;99.90
7972;DHT22;4031;49.758;6.120;2023-10-13T03:33:04;16.10;99.90
7972;DHT22;4031;49.758;6.120;2023-10-13T03:35:54;16.10;99.90
7972;DHT22;4031;49.758;6.120;2023-10-13T03:38:20;16.00;99.90
7972;DHT22;4031;49.758;6.120;2023-10-13T03:40:47;16.10;99.90
7972;DHT22;4031;49.758;6.120;2023-10-13T03:43:21;16.00;99.90
7972;DHT22;4031;49.758;6.120;2023-10-13T03:45:49;16.00;99.90
7972;DHT22;4031;49.758;6.120;2023-10-13T03:48:26;16.00;99.90
7972;DHT22;4031;49.758;6.120;2023-10-13T03:50:54;16.10;99.90
7972;DHT22;4031;49.758;6.120;2023-10-13T03:53:36;16.10;99.90
7972;DHT22;4031;49.758;6.120;2023-10-13T03:56:18;16.10;99.90
7972;DHT22;4031;49.758;6.120;2023-10-13T03:58:58;16.20;99.90
7972;DHT22;4031;49.758;6.120;2023-10-13T04:01:29;16.20;99.90
7972;DHT22;4031;49.758;6.120;2023-10-13T04:04:10;16.10;99.90
7972;DHT22;4031;49.758;6.120;2023-10-13T04:06:37;16.10;99.90
7972;DHT22;4031;49.758;6.120;2023-10-13T04:09:15;16.20;99.90
7972;DHT22;4031;49.758;6.120;2023-10-13T04:12:06;16.10;99.90
7972;DHT22;4031;49.758;6.120;2023-10-13T04:14:44;16.10;99.90
7972;DHT22;4031;49.758;6.120;2023-10-13T04:17:28;16.10;99.90
7972;DHT22;4031;49.758;6.120;2023-10-13T04:20:00;16.10;99.90
7972;DHT22;4031;49.758;6.120;2023-10-13T04:22:32;16.00;99.90
7972;DHT22;4031;49.758;6.120;2023-10-13T04:25:22;15.90;99.90
7972;DHT22;4031;49.758;6.120;2023-10-13T04:28:12;15.90;99.90
7972;DHT22;4031;49.758;6.120;2023-10-13T04:30:39;15.90;99.90
7972;DHT22;4031;49.758;6.120;2023-10-13T04:33:27;15.90;99.90
7972;DHT22;4031;49.758;6.120;2023-10-13T04:38:48;16.00;99.90
7972;DHT22;4031;49.758;6.120;2023-10-13T04:41:26;16.00;99.90
7972;DHT22;4031;49.758;6.120;2023-10-13T04:44:22;16.10;99.90
7972;DHT22;4031;49.758;6.120;2023-10-13T04:47:06;16.10;99.90
7972;DHT22;4031;49.758;6.120;2023-10-13T04:49:40;16.10;99.90
7972;DHT22;4031;49.758;6.120;2023-10-13T04:52:09;16.10;99.90
7972;DHT22;4031;49.758;6.120;2023-10-13T04:54:37;16.10;99.90
7972;DHT22;4031;49.758;6.120;2023-10-13T04:57:23;16.10;99.90
7972;DHT22;4031;49.758;6.120;2023-10-13T05:00:09;16.00;99.90
7972;DHT22;4031;49.758;6.120;2023-10-13T05:02:58;16.00;99.90
7972;DHT22;4031;49.758;6.120;2023-10-13T05:05:27;16.00;99.90
7972;DHT22;4031;49.758;6.120;2023-10-13T05:08:31;15.90;99.90
7972;DHT22;4031;49.758;6.120;2023-10-13T05:11:15;15.70;99.90
7972;DHT22;4031;49.758;6.120;2023-10-13T05:13:59;15.60;99.90
7972;DHT22;4031;49.758;6.120;2023-10-13T05:16:44;15.50;99.90
7972;DHT22;4031;49.758;6.120;2023-10-13T05:19:28;15.50;99.90
7972;DHT22;4031;49.758;6.120;2023-10-13T05:22:12;15.40;99.90
7972;DHT22;4031;49.758;6.120;2023-10-13T05:24:56;15.40;99.90
7972;DHT22;4031;49.758;6.120;2023-10-13T05:27:41;15.30;99.90
7972;DHT22;4031;49.758;6.120;2023-10-13T05:30:25;15.20;99.90
7972;DHT22;4031;49.758;6.120;2023-10-13T05:33:09;15.20;99.90
7972;DHT22;4031;49.758;6.120;2023-10-13T05:35:54;15.20;99.90
7972;DHT22;4031;49.758;6.120;2023-10-13T05:38:38;15.30;99.90
7972;DHT22;4031;49.758;6.120;2023-10-13T05:41:22;15.30;99.90
7972;DHT22;4031;49.758;6.120;2023-10-13T05:44:06;15.40;99.90
7972;DHT22;4031;49.758;6.120;2023-10-13T05:46:51;15.50;99.90
7972;DHT22;4031;49.758;6.120;2023-10-13T05:49:36;15.60;99.90
7972;DHT22;4031;49.758;6.120;2023-10-13T05:52:30;15.70;99.90
7972;DHT22;4031;49.758;6.120;2023-10-13T05:55:14;15.80;99.90
7972;DHT22;4031;49.758;6.120;2023-10-13T05:57:58;15.90;99.90
7972;DHT22;4031;49.758;6.120;2023-10-13T06:00:42;15.90;99.90
7972;DHT22;4031;49.758;6.120;2023-10-13T06:03:27;15.90;99.90
7972;DHT22;4031;49.758;6.120;2023-10-13T06:06:11;16.00;99.90
7972;DHT22;4031;49.758;6.120;2023-10-13T06:08:55;16.00;99.90
7972;DHT22;4031;49.758;6.120;2023-10-13T06:11:39;16.00;99.90
7972;DHT22;4031;49.758;6.120;2023-10-13T06:14:23;16.00;99.90
7972;DHT22;4031;49.758;6.120;2023-10-13T06:17:07;16.00;99.90
7972;DHT22;4031;49.758;6.120;2023-10-13T06:19:52;16.00;99.90
7972;DHT22;4031;49.758;6.120;2023-10-13T06:22:36;15.90;99.90
7972;DHT22;4031;49.758;6.120;2023-10-13T06:25:20;15.90;99.90
7972;DHT22;4031;49.758;6.120;2023-10-13T06:28:04;15.90;99.90
7972;DHT22;4031;49.758;6.120;2023-10-13T06:30:59;15.90;99.90
7972;DHT22;4031;49.758;6.120;2023-10-13T06:33:26;15.90;99.90
7972;DHT22;4031;49.758;6.120;2023-10-13T06:35:56;15.90;99.90
7972;DHT22;4031;49.758;6.120;2023-10-13T06:38:23;16.00;99.90
7972;DHT22;4031;49.758;6.120;2023-10-13T06:40:49;16.00;99.90
7972;DHT22;4031;49.758;6.120;2023-10-13T06:43:16;16.20;99.90
7972;DHT22;4031;49.758;6.120;2023-10-13T06:45:46;16.50;99.90
7972;DHT22;4031;49.758;6.120;2023-10-13T06:48:25;16.60;99.90
7972;DHT22;4031;49.758;6.120;2023-10-13T06:50:52;16.80;99.90
7972;DHT22;4031;49.758;6.120;2023-10-13T06:53:19;17.00;99.90
7972;DHT22;4031;49.758;6.120;2023-10-13T06:55:45;17.10;99.90
7972;DHT22;4031;49.758;6.120;2023-10-13T06:58:15;17.10;99.90
7972;DHT22;4031;49.758;6.120;2023-10-13T07:00:43;17.20;99.90
7972;DHT22;4031;49.758;6.120;2023-10-13T07:03:24;17.30;99.90
7972;DHT22;4031;49.758;6.120;2023-10-13T07:05:50;17.30;99.90
7972;DHT22;4031;49.758;6.120;2023-10-13T07:08:17;17.30;99.90
7972;DHT22;4031;49.758;6.120;2023-10-13T07:13:43;17.40;99.90
7972;DHT22;4031;49.758;6.120;2023-10-13T07:16:15;17.40;99.90
7972;DHT22;4031;49.758;6.120;2023-10-13T07:18:41;17.50;99.90
7972;DHT22;4031;49.758;6.120;2023-10-13T07:21:15;17.60;99.90
7972;DHT22;4031;49.758;6.120;2023-10-13T07:23:41;17.70;99.90
7972;DHT22;4031;49.758;6.120;2023-10-13T07:26:21;17.70;99.90
7972;DHT22;4031;49.758;6.120;2023-10-13T07:28:49;17.80;99.90
7972;DHT22;4031;49.758;6.120;2023-10-13T07:31:17;18.00;99.90
7972;DHT22;4031;49.758;6.120;2023-10-13T07:33:44;18.10;99.90
7972;DHT22;4031;49.758;6.120;2023-10-13T07:36:10;18.30;99.90
7972;DHT22;4031;49.758;6.120;2023-10-13T07:38:47;18.50;99.90
7972;DHT22;4031;49.758;6.120;2023-10-13T07:41:25;18.80;99.90
7972;DHT22;4031;49.758;6.120;2023-10-13T07:43:56;19.00;99.90
7972;DHT22;4031;49.758;6.120;2023-10-13T07:46:23;19.00;99.90
7972;DHT22;4031;49.758;6.120;2023-10-13T07:48:56;18.90;99.90
7972;DHT22;4031;49.758;6.120;2023-10-13T07:51:34;18.60;99.90
7972;DHT22;4031;49.758;6.120;2023-10-13T07:54:06;18.50;99.90
7972;DHT22;4031;49.758;6.120;2023-10-13T07:56:36;18.40;99.90
7972;DHT22;4031;49.758;6.120;2023-10-13T07:59:05;18.20;99.90
7972;DHT22;4031;49.758;6.120;2023-10-13T08:01:35;18.20;99.90
7972;DHT22;4031;49.758;6.120;2023-10-13T08:04:01;18.10;99.90
7972;DHT22;4031;49.758;6.120;2023-10-13T08:06:40;18.00;99.90
7972;DHT22;4031;49.758;6.120;2023-10-13T08:09:07;18.10;99.90
7972;DHT22;4031;49.758;6.120;2023-10-13T08:11:52;18.60;99.90
7972;DHT22;4031;49.758;6.120;2023-10-13T08:14:20;19.50;99.90
7972;DHT22;4031;49.758;6.120;2023-10-13T08:16:49;19.90;99.90
7972;DHT22;4031;49.758;6.120;2023-10-13T08:19:23;19.90;99.90
7972;DHT22;4031;49.758;6.120;2023-10-13T08:21:57;19.80;99.90
7972;DHT22;4031;49.758;6.120;2023-10-13T08:24:27;19.70;99.90
7972;DHT22;4031;49.758;6.120;2023-10-13T08:26:53;20.10;99.90
7972;DHT22;4031;49.758;6.120;2023-10-13T08:29:37;20.40;99.90
7972;DHT22;4031;49.758;6.120;2023-10-13T08:34:58;20.20;99.90
7972;DHT22;4031;49.758;6.120;2023-10-13T08:37:28;20.10;99.90
7972;DHT22;4031;49.758;6.120;2023-10-13T08:39:57;19.90;99.90
7972;DHT22;4031;49.758;6.120;2023-10-13T08:42:31;19.70;99.90
7972;DHT22;4031;49.758;6.120;2023-10-13T08:45:08;19.50;99.90
7972;DHT22;4031;49.758;6.120;2023-10-13T08:48:02;19.40;99.90
7972;DHT22;4031;49.758;6.120;2023-10-13T08:50:49;19.40;99.90
7972;DHT22;4031;49.758;6.120;2023-10-13T08:53:28;19.50;99.90
7972;DHT22;4031;49.758;6.120;2023-10-13T08:58:35;19.90;99.90
7972;DHT22;4031;49.758;6.120;2023-10-13T09:04:06;20.50;99.90
7972;DHT22;4031;49.758;6.120;2023-10-13T09:12:21;20.60;99.90
7972;DHT22;4031;49.758;6.120;2023-10-13T09:17:49;20.20;99.90
7972;DHT22;4031;49.758;6.120;2023-10-13T09:20:38;19.90;99.90
7972;DHT22;4031;49.758;6.120;2023-10-13T09:23:09;19.70;99.90
7972;DHT22;4031;49.758;6.120;2023-10-13T09:25:39;19.70;99.90
7972;DHT22;4031;49.758;6.120;2023-10-13T09:28:19;19.70;99.90
7972;DHT22;4031;49.758;6.120;2023-10-13T09:30:54;19.80;99.90
7972;DHT22;4031;49.758;6.120;2023-10-13T09:33:31;20.00;99.90
7972;DHT22;4031;49.758;6.120;2023-10-13T09:36:06;20.40;99.90
7972;DHT22;4031;49.758;6.120;2023-10-13T09:38:36;20.80;99.90
7972;DHT22;4031;49.758;6.120;2023-10-13T09:41:07;21.10;99.90
7972;DHT22;4031;49.758;6.120;2023-10-13T09:43:46;21.30;99.90
7972;DHT22;4031;49.758;6.120;2023-10-13T09:46:19;21.40;99.90
7972;DHT22;4031;49.758;6.120;2023-10-13T09:48:49;21.40;99.90
7972;DHT22;4031;49.758;6.120;2023-10-13T09:51:30;21.40;99.90
7972;DHT22;4031;49.758;6.120;2023-10-13T09:54:10;21.70;99.90
7972;DHT22;4031;49.758;6.120;2023-10-13T09:56:50;21.90;99.90
7972;DHT22;4031;49.758;6.120;2023-10-13T09:59:21;21.90;99.90
7972;DHT22;4031;49.758;6.120;2023-10-13T10:01:51;22.20;99.90
7972;DHT22;4031;49.758;6.120;2023-10-13T10:04:24;22.90;99.90
7972;DHT22;4031;49.758;6.120;2023-10-13T10:06:57;23.80;99.90
7972;DHT22;4031;49.758;6.120;2023-10-13T10:09:28;24.70;99.90
7972;DHT22;4031;49.758;6.120;2023-10-13T10:17:27;25.10;99.90
7972;DHT22;4031;49.758;6.120;2023-10-13T10:19:55;24.50;99.90
7972;DHT22;4031;49.758;6.120;2023-10-13T10:22:29;24.30;99.90
7972;DHT22;4031;49.758;6.120;2023-10-13T10:24:59;24.00;99.90
7972;DHT22;4031;49.758;6.120;2023-10-13T10:27:31;23.50;99.90
7972;DHT22;4031;49.758;6.120;2023-10-13T10:29:58;23.60;99.90
7972;DHT22;4031;49.758;6.120;2023-10-13T10:32:34;23.70;99.90
7972;DHT22;4031;49.758;6.120;2023-10-13T10:35:08;24.20;99.90
7972;DHT22;4031;49.758;6.120;2023-10-13T10:37:40;25.10;99.90
7972;DHT22;4031;49.758;6.120;2023-10-13T10:40:16;26.10;99.90
7972;DHT22;4031;49.758;6.120;2023-10-13T10:43:00;26.90;99.90
7972;DHT22;4031;49.758;6.120;2023-10-13T10:45:27;27.50;99.90
7972;DHT22;4031;49.758;6.120;2023-10-13T10:47:59;27.60;99.90
7972;DHT22;4031;49.758;6.120;2023-10-13T10:50:27;28.00;99.90
7972;DHT22;4031;49.758;6.120;2023-10-13T10:53:04;28.20;99.90
7972;DHT22;4031;49.758;6.120;2023-10-13T10:55:37;28.30;99.90
7972;DHT22;4031;49.758;6.120;2023-10-13T10:58:03;28.20;99.90
7972;DHT22;4031;49.758;6.120;2023-10-13T11:00:32;27.40;99.90
7972;DHT22;4031;49.758;6.120;2023-10-13T11:03:12;26.80;99.90
7972;DHT22;4031;49.758;6.120;2023-10-13T11:05:47;26.20;99.90
7972;DHT22;4031;49.758;6.120;2023-10-13T11:08:25;26.00;99.90
7972;DHT22;4031;49.758;6.120;2023-10-13T11:11:00;25.70;99.90
7972;DHT22;4031;49.758;6.120;2023-10-13T11:13:27;25.20;99.90
7972;DHT22;4031;49.758;6.120;2023-10-13T11:15:57;24.70;99.90
7972;DHT22;4031;49.758;6.120;2023-10-13T11:18:30;24.50;99.90
7972;DHT22;4031;49.758;6.120;2023-10-13T11:20:59;24.30;99.90
7972;DHT22;4031;49.758;6.120;2023-10-13T11:23:25;24.30;99.90
7972;DHT22;4031;49.758;6.120;2023-10-13T11:26:00;24.60;99.90
7972;DHT22;4031;49.758;6.120;2023-10-13T11:28:26;24.90;99.90
7972;DHT22;4031;49.758;6.120;2023-10-13T11:30:58;25.10;99.90
7972;DHT22;4031;49.758;6.120;2023-10-13T11:33:25;25.10;99.90
7972;DHT22;4031;49.758;6.120;2023-10-13T11:35:54;25.00;99.90
7972;DHT22;4031;49.758;6.120;2023-10-13T11:41:14;23.90;99.90
7972;DHT22;4031;49.758;6.120;2023-10-13T11:43:42;23.60;99.90
7972;DHT22;4031;49.758;6.120;2023-10-13T11:46:16;23.50;99.90
7972;DHT22;4031;49.758;6.120;2023-10-13T11:49:03;23.30;99.90
7972;DHT22;4031;49.758;6.120;2023-10-13T11:51:39;22.90;99.90
7972;DHT22;4031;49.758;6.120;2023-10-13T11:54:19;22.70;99.90
7972;DHT22;4031;49.758;6.120;2023-10-13T11:56:48;22.50;99.90
7972;DHT22;4031;49.758;6.120;2023-10-13T11:59:14;22.60;99.90
7972;DHT22;4031;49.758;6.120;2023-10-13T12:01:48;22.60;99.90
7972;DHT22;4031;49.758;6.120;2023-10-13T12:04:33;22.50;99.90
7972;DHT22;4031;49.758;6.120;2023-10-13T12:07:07;22.50;99.90
7972;DHT22;4031;49.758;6.120;2023-10-13T12:09:45;22.40;99.90
7972;DHT22;4031;49.758;6.120;2023-10-13T12:12:17;22.50;99.90
7972;DHT22;4031;49.758;6.120;2023-10-13T12:14:43;22.60;99.90
7972;DHT22;4031;49.758;6.120;2023-10-13T12:17:18;22.70;99.90
7972;DHT22;4031;49.758;6.120;2023-10-13T12:19:53;23.10;99.90
7972;DHT22;4031;49.758;6.120;2023-10-13T12:22:20;23.50;99.90
7972;DHT22;4031;49.758;6.120;2023-10-13T12:25:01;23.60;99.90
7972;DHT22;4031;49.758;6.120;2023-10-13T12:27:31;23.60;99.90
7972;DHT22;4031;49.758;6.120;2023-10-13T12:30:01;23.70;99.90
7972;DHT22;4031;49.758;6.120;2023-10-13T12:32:33;23.90;99.90
7972;DHT22;4031;49.758;6.120;2023-10-13T12:35:00;24.20;99.90
7972;DHT22;4031;49.758;6.120;2023-10-13T12:37:32;25.00;99.90
7972;DHT22;4031;49.758;6.120;2023-10-13T12:40:09;25.60;99.90
7972;DHT22;4031;49.758;6.120;2023-10-13T12:43:01;26.20;99.90
7972;DHT22;4031;49.758;6.120;2023-10-13T12:45:47;26.30;99.90
7972;DHT22;4031;49.758;6.120;2023-10-13T12:48:34;25.90;99.90
7972;DHT22;4031;49.758;6.120;2023-10-13T12:51:20;25.60;99.90
7972;DHT22;4031;49.758;6.120;2023-10-13T12:53:51;25.20;99.90
7972;DHT22;4031;49.758;6.120;2023-10-13T12:56:18;24.80;99.90
7972;DHT22;4031;49.758;6.120;2023-10-13T12:58:52;24.40;99.90
7972;DHT22;4031;49.758;6.120;2023-10-13T13:01:18;24.10;99.90
7972;DHT22;4031;49.758;6.120;2023-10-13T13:03:48;24.00;99.90
7972;DHT22;4031;49.758;6.120;2023-10-13T13:06:18;23.80;99.90
7972;DHT22;4031;49.758;6.120;2023-10-13T13:08:51;23.80;99.90
7972;DHT22;4031;49.758;6.120;2023-10-13T13:11:21;23.90;99.90
7972;DHT22;4031;49.758;6.120;2023-10-13T13:13:47;24.00;99.90
7972;DHT22;4031;49.758;6.120;2023-10-13T13:16:17;24.10;99.90
7972;DHT22;4031;49.758;6.120;2023-10-13T13:18:44;24.20;99.90
7972;DHT22;4031;49.758;6.120;2023-10-13T13:21:11;24.60;99.90
7972;DHT22;4031;49.758;6.120;2023-10-13T13:23:49;25.30;99.90
7972;DHT22;4031;49.758;6.120;2023-10-13T13:26:15;26.20;99.90
7972;DHT22;4031;49.758;6.120;2023-10-13T13:28:47;26.60;99.90
7972;DHT22;4031;49.758;6.120;2023-10-13T13:33:44;26.00;99.90
7972;DHT22;4031;49.758;6.120;2023-10-13T13:36:10;25.70;99.90
7972;DHT22;4031;49.758;6.120;2023-10-13T13:38:43;25.30;99.90
7972;DHT22;4031;49.758;6.120;2023-10-13T13:41:16;25.10;99.90
7972;DHT22;4031;49.758;6.120;2023-10-13T13:43:51;24.80;99.90
7972;DHT22;4031;49.758;6.120;2023-10-13T13:46:21;24.60;99.90
7972;DHT22;4031;49.758;6.120;2023-10-13T13:48:53;24.50;99.90
7972;DHT22;4031;49.758;6.120;2023-10-13T13:51:31;24.30;99.90
7972;DHT22;4031;49.758;6.120;2023-10-13T13:53:59;24.30;99.90
7972;DHT22;4031;49.758;6.120;2023-10-13T13:56:26;24.20;99.90
7972;DHT22;4031;49.758;6.120;2023-10-13T13:58:54;24.20;99.90
7972;DHT22;4031;49.758;6.120;2023-10-13T14:01:24;24.10;99.90
7972;DHT22;4031;49.758;6.120;2023-10-13T14:03:54;23.90;99.90
7972;DHT22;4031;49.758;6.120;2023-10-13T14:06:29;23.90;99.90
7972;DHT22;4031;49.758;6.120;2023-10-13T14:08:57;23.70;99.90
7972;DHT22;4031;49.758;6.120;2023-10-13T14:11:30;23.50;99.90
7972;DHT22;4031;49.758;6.120;2023-10-13T14:16:40;23.30;99.90
7972;DHT22;4031;49.758;6.120;2023-10-13T14:19:10;23.20;99.90
7972;DHT22;4031;49.758;6.120;2023-10-13T14:21:37;23.20;99.90
7972;DHT22;4031;49.758;6.120;2023-10-13T14:24:03;23.30;99.90
7972;DHT22;4031;49.758;6.120;2023-10-13T14:26:38;23.50;99.90
7972;DHT22;4031;49.758;6.120;2023-10-13T14:29:05;23.80;99.90
7972;DHT22;4031;49.758;6.120;2023-10-13T14:31:34;24.10;99.90
7972;DHT22;4031;49.758;6.120;2023-10-13T14:34:05;24.10;99.90
7972;DHT22;4031;49.758;6.120;2023-10-13T14:36:32;24.40;99.90
7972;DHT22;4031;49.758;6.120;2023-10-13T14:39:02;24.70;99.90
7972;DHT22;4031;49.758;6.120;2023-10-13T14:41:35;24.80;99.90
7972;DHT22;4031;49.758;6.120;2023-10-13T14:44:01;24.70;99.90
7972;DHT22;4031;49.758;6.120;2023-10-13T14:46:31;24.70;99.90
7972;DHT22;4031;49.758;6.120;2023-10-13T14:48:57;25.30;99.90
7972;DHT22;4031;49.758;6.120;2023-10-13T14:51:23;25.70;99.90
7972;DHT22;4031;49.758;6.120;2023-10-13T14:53:51;25.90;99.90
7972;DHT22;4031;49.758;6.120;2023-10-13T14:56:21;25.90;99.90
7972;DHT22;4031;49.758;6.120;2023-10-13T14:58:51;25.70;99.90
7972;DHT22;4031;49.758;6.120;2023-10-13T15:01:19;25.50;99.90
7972;DHT22;4031;49.758;6.120;2023-10-13T15:03:51;25.20;99.90
7972;DHT22;4031;49.758;6.120;2023-10-13T15:06:27;24.80;99.90
7972;DHT22;4031;49.758;6.120;2023-10-13T15:08:57;24.60;99.90
7972;DHT22;4031;49.758;6.120;2023-10-13T15:11:25;24.50;99.90
7972;DHT22;4031;49.758;6.120;2023-10-13T15:14:04;24.50;99.90
7972;DHT22;4031;49.758;6.120;2023-10-13T15:16:32;24.80;99.90
7972;DHT22;4031;49.758;6.120;2023-10-13T15:18:59;24.80;99.90
7972;DHT22;4031;49.758;6.120;2023-10-13T15:21:29;25.00;99.90
7972;DHT22;4031;49.758;6.120;2023-10-13T15:24:00;24.90;99.90
7972;DHT22;4031;49.758;6.120;2023-10-13T15:26:32;24.70;99.90
7972;DHT22;4031;49.758;6.120;2023-10-13T15:29:06;24.40;99.90
7972;DHT22;4031;49.758;6.120;2023-10-13T15:31:40;24.10;99.90
7972;DHT22;4031;49.758;6.120;2023-10-13T15:34:11;23.80;99.90
7972;DHT22;4031;49.758;6.120;2023-10-13T15:36:44;23.50;99.90
7972;DHT22;4031;49.758;6.120;2023-10-13T15:39:11;23.30;99.90
7972;DHT22;4031;49.758;6.120;2023-10-13T15:41:38;23.10;99.90
7972;DHT22;4031;49.758;6.120;2023-10-13T15:44:04;23.00;99.90
7972;DHT22;4031;49.758;6.120;2023-10-13T15:46:35;22.80;99.90
7972;DHT22;4031;49.758;6.120;2023-10-13T15:49:02;22.80;99.90
7972;DHT22;4031;49.758;6.120;2023-10-13T15:51:32;22.60;99.90
7972;DHT22;4031;49.758;6.120;2023-10-13T15:54:02;22.50;99.90
7972;DHT22;4031;49.758;6.120;2023-10-13T15:56:29;22.40;99.90
7972;DHT22;4031;49.758;6.120;2023-10-13T15:59:00;22.20;99.90
7972;DHT22;4031;49.758;6.120;2023-10-13T16:01:27;22.30;99.90
7972;DHT22;4031;49.758;6.120;2023-10-13T16:03:53;22.10;99.90
7972;DHT22;4031;49.758;6.120;2023-10-13T16:06:19;22.10;99.90
7972;DHT22;4031;49.758;6.120;2023-10-13T16:08:51;22.00;99.90
7972;DHT22;4031;49.758;6.120;2023-10-13T16:11:18;21.70;99.90
7972;DHT22;4031;49.758;6.120;2023-10-13T16:13:44;21.60;99.90
7972;DHT22;4031;49.758;6.120;2023-10-13T16:16:15;21.50;99.90
7972;DHT22;4031;49.758;6.120;2023-10-13T16:18:42;21.30;99.90
7972;DHT22;4031;49.758;6.120;2023-10-13T16:21:10;21.00;99.90
7972;DHT22;4031;49.758;6.120;2023-10-13T16:23:38;20.80;99.90
7972;DHT22;4031;49.758;6.120;2023-10-13T16:26:07;20.60;99.90
7972;DHT22;4031;49.758;6.120;2023-10-13T16:28:37;20.40;99.90
7972;DHT22;4031;49.758;6.120;2023-10-13T16:31:07;20.10;99.90
7972;DHT22;4031;49.758;6.120;2023-10-13T16:33:36;19.90;99.90
7972;DHT22;4031;49.758;6.120;2023-10-13T16:36:05;19.60;99.90
7972;DHT22;4031;49.758;6.120;2023-10-13T16:38:37;19.50;99.90
7972;DHT22;4031;49.758;6.120;2023-10-13T16:41:03;19.30;99.90
7972;DHT22;4031;49.758;6.120;2023-10-13T16:43:32;19.10;99.90
7972;DHT22;4031;49.758;6.120;2023-10-13T16:45:59;19.00;99.90
7972;DHT22;4031;49.758;6.120;2023-10-13T16:48:24;18.90;99.90
7972;DHT22;4031;49.758;6.120;2023-10-13T16:50:52;18.70;99.90
7972;DHT22;4031;49.758;6.120;2023-10-13T16:53:23;18.60;99.90
7972;DHT22;4031;49.758;6.120;2023-10-13T16:55:49;18.60;99.90
7972;DHT22;4031;49.758;6.120;2023-10-13T16:58:14;18.50;99.90
7972;DHT22;4031;49.758;6.120;2023-10-13T17:00:40;18.40;99.90
7972;DHT22;4031;49.758;6.120;2023-10-13T17:03:10;18.40;99.90
7972;DHT22;4031;49.758;6.120;2023-10-13T17:05:46;18.30;99.90
7972;DHT22;4031;49.758;6.120;2023-10-13T17:08:12;18.30;99.90
7972;DHT22;4031;49.758;6.120;2023-10-13T17:10:39;18.30;99.90
7972;DHT22;4031;49.758;6.120;2023-10-13T17:13:05;18.30;99.90
7972;DHT22;4031;49.758;6.120;2023-10-13T17:15:32;18.20;99.90
7972;DHT22;4031;49.758;6.120;2023-10-13T17:17:59;18.20;99.90